sensor_id;sensor_type;location;lat;lon;timestamp;pressure;altitude;pressure_sealevel;temperature;humidity
27980;BME280;15315;50.836;4.430;2023-06-04T00:01:09;101499.69;;;20.79;35.45
27980;BME280;15315;50.836;4.430;2023-06-04T00:11:09;101502.19;;;20.18;36.29
27980;BME280;15315;50.836;4.430;2023-06-04T00:21:10;101497.81;;;20.34;36.22
27980;BME280;15315;50.836;4.430;2023-06-04T00:31:10;101483.78;;;20.01;36.88
27980;BME280;15315;50.836;4.430;2023-06-04T00:41:12;101486.50;;;19.64;37.60
27980;BME280;15315;50.836;4.430;2023-06-04T00:51:13;101488.97;;;19.29;38.03
27980;BME280;15315;50.836;4.430;2023-06-04T01:01:29;101482.44;;;19.77;37.72
27980;BME280;15315;50.836;4.430;2023-06-04T01:11:36;101489.56;;;19.03;38.51
27980;BME280;15315;50.836;4.430;2023-06-04T01:21:37;101496.03;;;19.02;38.45
27980;BME280;15315;50.836;4.430;2023-06-04T01:31:38;101478.94;;;18.81;39.00
27980;BME280;15315;50.836;4.430;2023-06-04T01:41:40;101488.41;;;18.77;39.44
27980;BME280;15315;50.836;4.430;2023-06-04T01:51:40;101482.72;;;18.50;39.91
27980;BME280;15315;50.836;4.430;2023-06-04T02:01:41;101475.84;;;18.16;40.98
27980;BME280;15315;50.836;4.430;2023-06-04T02:11:41;101482.63;;;17.61;42.49
27980;BME280;15315;50.836;4.430;2023-06-04T02:21:42;101495.56;;;17.68;42.65
27980;BME280;15315;50.836;4.430;2023-06-04T02:31:42;101495.78;;;17.14;44.53
27980;BME280;15315;50.836;4.430;2023-06-04T02:41:42;101488.34;;;17.37;44.39
27980;BME280;15315;50.836;4.430;2023-06-04T02:51:43;101503.94;;;17.14;45.51
27980;BME280;15315;50.836;4.430;2023-06-04T03:01:43;101502.34;;;17.12;45.69
27980;BME280;15315;50.836;4.430;2023-06-04T03:11:44;101493.38;;;17.42;45.41
27980;BME280;15315;50.836;4.430;2023-06-04T03:21:44;101493.84;;;17.26;45.98
27980;BME280;15315;50.836;4.430;2023-06-04T03:31:45;101498.16;;;17.08;47.33
27980;BME280;15315;50.836;4.430;2023-06-04T03:41:45;101500.59;;;17.11;47.55
27980;BME280;15315;50.836;4.430;2023-06-04T03:51:46;101496.84;;;16.37;50.33
27980;BME280;15315;50.836;4.430;2023-06-04T04:01:46;101498.44;;;16.51;50.66
27980;BME280;15315;50.836;4.430;2023-06-04T04:11:46;101502.22;;;16.59;50.96
27980;BME280;15315;50.836;4.430;2023-06-04T04:21:47;101504.28;;;16.46;52.50
27980;BME280;15315;50.836;4.430;2023-06-04T04:31:49;101506.22;;;16.44;53.29
27980;BME280;15315;50.836;4.430;2023-06-04T04:41:50;101509.19;;;16.95;52.51
27980;BME280;15315;50.836;4.430;2023-06-04T04:51:50;101508.19;;;16.96;53.51
27980;BME280;15315;50.836;4.430;2023-06-04T05:01:51;101519.31;;;17.36;52.91
27980;BME280;15315;50.836;4.430;2023-06-04T05:11:51;101523.34;;;17.21;53.75
27980;BME280;15315;50.836;4.430;2023-06-04T05:21:52;101538.31;;;16.84;55.41
27980;BME280;15315;50.836;4.430;2023-06-04T05:31:52;101527.94;;;16.78;56.20
27980;BME280;15315;50.836;4.430;2023-06-04T05:41:53;101519.00;;;17.50;54.97
27980;BME280;15315;50.836;4.430;2023-06-04T05:51:53;101517.34;;;17.06;56.43
27980;BME280;15315;50.836;4.430;2023-06-04T06:01:54;101525.31;;;16.33;57.81
27980;BME280;15315;50.836;4.430;2023-06-04T06:11:54;101537.94;;;16.88;56.91
27980;BME280;15315;50.836;4.430;2023-06-04T06:21:54;101538.19;;;16.31;58.65
27980;BME280;15315;50.836;4.430;2023-06-04T06:31:55;101548.31;;;17.58;55.56
27980;BME280;15315;50.836;4.430;2023-06-04T06:41:56;101545.13;;;17.73;54.80
27980;BME280;15315;50.836;4.430;2023-06-04T06:51:56;101557.41;;;17.26;54.92
27980;BME280;15315;50.836;4.430;2023-06-04T07:01:56;101559.38;;;17.56;53.46
27980;BME280;15315;50.836;4.430;2023-06-04T07:11:57;101564.16;;;18.35;52.38
27980;BME280;15315;50.836;4.430;2023-06-04T07:21:57;101574.22;;;18.35;51.00
27980;BME280;15315;50.836;4.430;2023-06-04T07:31:57;101579.88;;;18.13;50.72
27980;BME280;15315;50.836;4.430;2023-06-04T07:41:58;101578.59;;;18.87;49.64
27980;BME280;15315;50.836;4.430;2023-06-04T07:51:58;101571.81;;;18.81;48.90
27980;BME280;15315;50.836;4.430;2023-06-04T08:01:58;101578.97;;;19.41;47.98
27980;BME280;15315;50.836;4.430;2023-06-04T08:11:59;101576.34;;;19.78;47.29
27980;BME280;15315;50.836;4.430;2023-06-04T08:22:00;101580.72;;;20.17;46.21
27980;BME280;15315;50.836;4.430;2023-06-04T08:32:01;101575.78;;;20.30;45.62
27980;BME280;15315;50.836;4.430;2023-06-04T08:42:06;101572.03;;;20.31;44.92
27980;BME280;15315;50.836;4.430;2023-06-04T08:52:07;101574.44;;;20.44;43.43
27980;BME280;15315;50.836;4.430;2023-06-04T09:02:08;101575.88;;;21.02;42.69
27980;BME280;15315;50.836;4.430;2023-06-04T09:12:10;101580.88;;;21.07;41.71
27980;BME280;15315;50.836;4.430;2023-06-04T09:22:11;101593.09;;;20.95;41.10
27980;BME280;15315;50.836;4.430;2023-06-04T09:32:12;101578.50;;;21.39;40.80
27980;BME280;15315;50.836;4.430;2023-06-04T09:42:12;101568.81;;;22.14;39.53
27980;BME280;15315;50.836;4.430;2023-06-04T09:52:13;101570.09;;;22.02;39.71
27980;BME280;15315;50.836;4.430;2023-06-04T10:02:19;101571.25;;;21.74;39.67
27980;BME280;15315;50.836;4.430;2023-06-04T10:12:30;101573.47;;;22.13;38.53
27980;BME280;15315;50.836;4.430;2023-06-04T10:22:32;101567.53;;;22.26;37.18
27980;BME280;15315;50.836;4.430;2023-06-04T10:32:33;101569.25;;;22.61;36.83
27980;BME280;15315;50.836;4.430;2023-06-04T10:42:39;101557.25;;;23.28;36.26
27980;BME280;15315;50.836;4.430;2023-06-04T10:52:53;101561.00;;;23.19;34.64
27980;BME280;15315;50.836;4.430;2023-06-04T11:02:54;101564.78;;;22.60;35.18
27980;BME280;15315;50.836;4.430;2023-06-04T11:12:55;101550.97;;;22.85;35.57
27980;BME280;15315;50.836;4.430;2023-06-04T11:22:57;101545.03;;;23.22;36.21
27980;BME280;15315;50.836;4.430;2023-06-04T11:33:04;101548.47;;;23.08;34.17
27980;BME280;15315;50.836;4.430;2023-06-04T11:43:05;101534.06;;;23.87;33.63
27980;BME280;15315;50.836;4.430;2023-06-04T11:53:05;101526.13;;;23.35;33.14
27980;BME280;15315;50.836;4.430;2023-06-04T12:03:06;101532.34;;;23.78;34.15
27980;BME280;15315;50.836;4.430;2023-06-04T12:13:07;101524.53;;;24.14;31.89
27980;BME280;15315;50.836;4.430;2023-06-04T12:23:07;101522.63;;;24.22;32.78
27980;BME280;15315;50.836;4.430;2023-06-04T12:33:07;101514.56;;;23.96;33.83
27980;BME280;15315;50.836;4.430;2023-06-04T12:43:08;101491.38;;;24.46;33.63
27980;BME280;15315;50.836;4.430;2023-06-04T12:53:09;101503.84;;;24.64;33.17
27980;BME280;15315;50.836;4.430;2023-06-04T13:03:10;101498.63;;;25.00;32.45
27980;BME280;15315;50.836;4.430;2023-06-04T13:13:10;101514.59;;;24.51;32.43
27980;BME280;15315;50.836;4.430;2023-06-04T13:23:10;101511.00;;;25.12;32.06
27980;BME280;15315;50.836;4.430;2023-06-04T13:33:12;101498.97;;;24.75;32.53
27980;BME280;15315;50.836;4.430;2023-06-04T13:43:12;101495.72;;;25.02;31.57
27980;BME280;15315;50.836;4.430;2023-06-04T13:53:13;101493.69;;;25.18;32.03
27980;BME280;15315;50.836;4.430;2023-06-04T14:03:13;101479.47;;;24.84;31.53
27980;BME280;15315;50.836;4.430;2023-06-04T14:13:14;101468.41;;;26.04;30.44
27980;BME280;15315;50.836;4.430;2023-06-04T14:23:14;101465.25;;;25.55;30.13
27980;BME280;15315;50.836;4.430;2023-06-04T14:33:16;101462.34;;;25.71;29.56
27980;BME280;15315;50.836;4.430;2023-06-04T14:43:16;101465.56;;;25.23;29.71
27980;BME280;15315;50.836;4.430;2023-06-04T14:53:17;101451.09;;;25.58;30.09
27980;BME280;15315;50.836;4.430;2023-06-04T15:03:17;101457.78;;;25.64;29.64
27980;BME280;15315;50.836;4.430;2023-06-04T15:13:18;101447.66;;;25.56;29.13
27980;BME280;15315;50.836;4.430;2023-06-04T15:23:18;101446.00;;;26.14;28.48
27980;BME280;15315;50.836;4.430;2023-06-04T15:33:18;101445.84;;;26.51;28.19
27980;BME280;15315;50.836;4.430;2023-06-04T15:43:19;101436.94;;;26.20;28.70
27980;BME280;15315;50.836;4.430;2023-06-04T15:53:20;101443.16;;;27.36;27.42
27980;BME280;15315;50.836;4.430;2023-06-04T16:03:22;101440.09;;;31.94;23.85
27980;BME280;15315;50.836;4.430;2023-06-04T16:13:23;101428.56;;;35.12;20.93
27980;BME280;15315;50.836;4.430;2023-06-04T16:23:24;101423.69;;;36.72;20.25
27980;BME280;15315;50.836;4.430;2023-06-04T16:33:24;101420.50;;;37.44;19.92
27980;BME280;15315;50.836;4.430;2023-06-04T16:43:25;101411.59;;;38.04;19.10
27980;BME280;15315;50.836;4.430;2023-06-04T16:53:25;101406.19;;;37.92;19.54
27980;BME280;15315;50.836;4.430;2023-06-04T17:03:27;101408.81;;;38.71;19.25
27980;BME280;15315;50.836;4.430;2023-06-04T17:13:27;101406.91;;;36.56;19.96
27980;BME280;15315;50.836;4.430;2023-06-04T17:23:27;101400.13;;;36.78;20.51
27980;BME280;15315;50.836;4.430;2023-06-04T17:33:29;101398.50;;;37.41;20.26
27980;BME280;15315;50.836;4.430;2023-06-04T17:43:29;101386.41;;;36.34;20.92
27980;BME280;15315;50.836;4.430;2023-06-04T17:53:30;101395.78;;;35.46;21.34
27980;BME280;15315;50.836;4.430;2023-06-04T18:03:30;101399.38;;;31.69;23.70
27980;BME280;15315;50.836;4.430;2023-06-04T18:13:31;101395.66;;;30.32;25.30
27980;BME280;15315;50.836;4.430;2023-06-04T18:23:31;101407.81;;;29.60;26.28
27980;BME280;15315;50.836;4.430;2023-06-04T18:33:32;101399.00;;;27.90;27.99
27980;BME280;15315;50.836;4.430;2023-06-04T18:43:32;101412.16;;;27.47;28.63
27980;BME280;15315;50.836;4.430;2023-06-04T18:53:32;101407.91;;;27.51;28.92
27980;BME280;15315;50.836;4.430;2023-06-04T19:03:33;101411.63;;;27.09;30.05
27980;BME280;15315;50.836;4.430;2023-06-04T19:13:33;101413.63;;;26.79;30.21
27980;BME280;15315;50.836;4.430;2023-06-04T19:23:34;101425.66;;;26.36;33.05
27980;BME280;15315;50.836;4.430;2023-06-04T19:33:35;101425.78;;;26.42;36.61
27980;BME280;15315;50.836;4.430;2023-06-04T19:43:35;101445.91;;;25.78;39.08
27980;BME280;15315;50.836;4.430;2023-06-04T19:53:36;101454.94;;;25.12;41.43
27980;BME280;15315;50.836;4.430;2023-06-04T20:03:36;101469.31;;;25.30;41.46
27980;BME280;15315;50.836;4.430;2023-06-04T20:13:37;101481.66;;;24.19;44.13
27980;BME280;15315;50.836;4.430;2023-06-04T20:23:37;101488.44;;;23.92;45.15
27980;BME280;15315;50.836;4.430;2023-06-04T20:33:37;101493.97;;;23.68;46.42
27980;BME280;15315;50.836;4.430;2023-06-04T20:43:45;101498.78;;;23.82;46.38
27980;BME280;15315;50.836;4.430;2023-06-04T20:53:47;101502.22;;;23.20;48.01
27980;BME280;15315;50.836;4.430;2023-06-04T21:03:48;101511.78;;;22.83;49.09
27980;BME280;15315;50.836;4.430;2023-06-04T21:13:48;101529.34;;;22.99;49.14
27980;BME280;15315;50.836;4.430;2023-06-04T21:23:48;101537.13;;;23.03;49.47
27980;BME280;15315;50.836;4.430;2023-06-04T21:33:49;101544.31;;;22.96;50.32
27980;BME280;15315;50.836;4.430;2023-06-04T21:43:49;101546.53;;;22.17;53.63
27980;BME280;15315;50.836;4.430;2023-06-04T21:53:50;101550.88;;;22.02;55.10
27980;BME280;15315;50.836;4.430;2023-06-04T22:03:50;101548.28;;;22.00;56.63
27980;BME280;15315;50.836;4.430;2023-06-04T22:13:50;101561.47;;;21.97;57.47
27980;BME280;15315;50.836;4.430;2023-06-04T22:23:51;101568.91;;;21.61;59.98
27980;BME280;15315;50.836;4.430;2023-06-04T22:33:51;101564.00;;;21.29;62.47
27980;BME280;15315;50.836;4.430;2023-06-04T22:43:52;101569.13;;;20.97;64.52
27980;BME280;15315;50.836;4.430;2023-06-04T22:53:52;101566.09;;;21.18;63.96
27980;BME280;15315;50.836;4.430;2023-06-04T23:03:53;101580.16;;;20.51;66.99
27980;BME280;15315;50.836;4.430;2023-06-04T23:13:53;101583.47;;;20.91;66.04
27980;BME280;15315;50.836;4.430;2023-06-04T23:23:53;101586.88;;;20.66;67.81
27980;BME280;15315;50.836;4.430;2023-06-04T23:33:54;101585.50;;;20.06;71.00
27980;BME280;15315;50.836;4.430;2023-06-04T23:43:54;101583.03;;;20.22;70.93
27980;BME280;15315;50.836;4.430;2023-06-04T23:53:54;101582.97;;;20.41;68.97
